sensor_id;sensor_type;location;lat;lon;timestamp;pressure;altitude;pressure_sealevel;temperature;humidity
43115;BME280;28727;50.068;14.452;2023-06-24T00:01:30;99789.63;;;16.47;81.18
43115;BME280;28727;50.068;14.452;2023-06-24T00:04:03;99788.16;;;16.44;81.56
43115;BME280;28727;50.068;14.452;2023-06-24T00:06:35;99795.97;;;16.46;81.86
43115;BME280;28727;50.068;14.452;2023-06-24T00:09:10;99780.78;;;16.46;81.72
43115;BME280;28727;50.068;14.452;2023-06-24T00:11:42;99793.44;;;16.37;82.39
43115;BME280;28727;50.068;14.452;2023-06-24T00:14:17;99784.84;;;16.35;82.62
43115;BME280;28727;50.068;14.452;2023-06-24T00:16:49;99783.41;;;16.39;83.28
43115;BME280;28727;50.068;14.452;2023-06-24T00:19:23;99781.03;;;16.51;82.36
43115;BME280;28727;50.068;14.452;2023-06-24T00:21:59;99789.63;;;16.47;81.76
43115;BME280;28727;50.068;14.452;2023-06-24T00:24:34;99793.13;;;16.47;81.51
43115;BME280;28727;50.068;14.452;2023-06-24T00:27:06;99794.94;;;16.47;81.99
43115;BME280;28727;50.068;14.452;2023-06-24T00:29:38;99810.53;;;16.43;82.35
43115;BME280;28727;50.068;14.452;2023-06-24T00:32:10;99796.31;;;16.36;82.49
43115;BME280;28727;50.068;14.452;2023-06-24T00:34:42;99800.00;;;16.35;82.70
43115;BME280;28727;50.068;14.452;2023-06-24T00:37:15;99803.91;;;16.39;82.60
43115;BME280;28727;50.068;14.452;2023-06-24T00:39:47;99817.69;;;16.43;82.44
43115;BME280;28727;50.068;14.452;2023-06-24T00:42:27;99820.59;;;16.48;82.24
43115;BME280;28727;50.068;14.452;2023-06-24T00:44:58;99810.81;;;16.55;81.58
43115;BME280;28727;50.068;14.452;2023-06-24T00:47:31;99822.88;;;16.51;80.35
43115;BME280;28727;50.068;14.452;2023-06-24T00:50:06;99826.53;;;16.43;81.20
43115;BME280;28727;50.068;14.452;2023-06-24T00:52:38;99829.81;;;16.45;81.14
43115;BME280;28727;50.068;14.452;2023-06-24T00:55:17;99835.97;;;16.46;80.64
43115;BME280;28727;50.068;14.452;2023-06-24T00:57:50;99837.19;;;16.43;80.54
43115;BME280;28727;50.068;14.452;2023-06-24T01:00:23;99842.91;;;16.40;80.68
43115;BME280;28727;50.068;14.452;2023-06-24T01:02:56;99839.03;;;16.43;80.28
43115;BME280;28727;50.068;14.452;2023-06-24T01:05:31;99832.66;;;16.44;79.83
43115;BME280;28727;50.068;14.452;2023-06-24T01:08:07;99842.06;;;16.39;79.96
43115;BME280;28727;50.068;14.452;2023-06-24T01:10:38;99843.53;;;16.42;79.97
43115;BME280;28727;50.068;14.452;2023-06-24T01:13:11;99831.47;;;16.46;79.93
43115;BME280;28727;50.068;14.452;2023-06-24T01:15:43;99831.47;;;16.46;79.90
43115;BME280;28727;50.068;14.452;2023-06-24T01:31:30;99821.78;;;16.66;79.13
43115;BME280;28727;50.068;14.452;2023-06-24T01:36:45;99821.78;;;16.66;78.49
43115;BME280;28727;50.068;14.452;2023-06-24T01:39:19;99806.16;;;16.63;78.34
43115;BME280;28727;50.068;14.452;2023-06-24T01:41:56;99804.94;;;16.66;78.72
43115;BME280;28727;50.068;14.452;2023-06-24T01:44:30;99812.50;;;16.62;78.23
43115;BME280;28727;50.068;14.452;2023-06-24T01:47:05;99821.53;;;16.61;78.59
43115;BME280;28727;50.068;14.452;2023-06-24T01:49:41;99811.91;;;16.60;78.77
43115;BME280;28727;50.068;14.452;2023-06-24T01:52:16;99820.72;;;16.61;78.50
43115;BME280;28727;50.068;14.452;2023-06-24T01:54:49;99816.81;;;16.63;78.60
43115;BME280;28727;50.068;14.452;2023-06-24T01:57:21;99811.31;;;16.65;78.13
43115;BME280;28727;50.068;14.452;2023-06-24T01:59:57;99819.53;;;16.70;77.86
43115;BME280;28727;50.068;14.452;2023-06-24T02:02:29;99828.13;;;16.65;78.30
43115;BME280;28727;50.068;14.452;2023-06-24T02:05:03;99826.72;;;16.69;78.18
43115;BME280;28727;50.068;14.452;2023-06-24T02:07:36;99833.09;;;16.75;77.89
43115;BME280;28727;50.068;14.452;2023-06-24T02:10:09;99834.56;;;16.77;77.61
43115;BME280;28727;50.068;14.452;2023-06-24T02:12:46;99839.69;;;16.79;77.45
43115;BME280;28727;50.068;14.452;2023-06-24T02:15:19;99839.94;;;16.84;77.38
43115;BME280;28727;50.068;14.452;2023-06-24T02:17:51;99848.97;;;16.83;77.10
43115;BME280;28727;50.068;14.452;2023-06-24T02:20:28;99848.56;;;16.86;76.96
43115;BME280;28727;50.068;14.452;2023-06-24T02:23:01;99849.44;;;16.93;76.79
43115;BME280;28727;50.068;14.452;2023-06-24T02:25:36;99854.38;;;16.96;76.35
43115;BME280;28727;50.068;14.452;2023-06-24T02:28:17;99853.16;;;16.99;76.38
43115;BME280;28727;50.068;14.452;2023-06-24T02:30:51;99858.91;;;17.02;76.68
43115;BME280;28727;50.068;14.452;2023-06-24T02:33:24;99855.03;;;17.05;76.35
43115;BME280;28727;50.068;14.452;2023-06-24T02:35:58;99849.09;;;17.09;76.05
43115;BME280;28727;50.068;14.452;2023-06-24T02:38:30;99851.53;;;17.04;76.00
43115;BME280;28727;50.068;14.452;2023-06-24T02:41:02;99854.63;;;17.01;76.23
43115;BME280;28727;50.068;14.452;2023-06-24T02:43:36;99856.41;;;16.94;76.33
43115;BME280;28727;50.068;14.452;2023-06-24T02:46:08;99853.72;;;16.88;76.97
43115;BME280;28727;50.068;14.452;2023-06-24T02:48:41;99869.88;;;16.79;77.28
43115;BME280;28727;50.068;14.452;2023-06-24T02:51:14;99866.97;;;16.74;77.57
43115;BME280;28727;50.068;14.452;2023-06-24T02:53:46;99868.81;;;16.74;77.60
43115;BME280;28727;50.068;14.452;2023-06-24T02:56:21;99875.78;;;16.75;77.88
43115;BME280;28727;50.068;14.452;2023-06-24T02:58:56;99886.09;;;16.78;77.97
43115;BME280;28727;50.068;14.452;2023-06-24T03:01:33;99889.00;;;16.83;77.91
43115;BME280;28727;50.068;14.452;2023-06-24T03:04:11;99892.31;;;16.92;77.46
43115;BME280;28727;50.068;14.452;2023-06-24T03:06:44;99897.66;;;16.92;77.75
43115;BME280;28727;50.068;14.452;2023-06-24T03:09:16;99891.94;;;16.95;77.91
43115;BME280;28727;50.068;14.452;2023-06-24T03:11:49;99895.03;;;16.98;77.76
43115;BME280;28727;50.068;14.452;2023-06-24T03:14:30;99903.66;;;17.00;77.58
43115;BME280;28727;50.068;14.452;2023-06-24T03:17:07;99914.41;;;17.07;77.41
43115;BME280;28727;50.068;14.452;2023-06-24T03:19:39;99903.53;;;17.15;77.04
43115;BME280;28727;50.068;14.452;2023-06-24T03:22:12;99907.72;;;17.24;76.75
43115;BME280;28727;50.068;14.452;2023-06-24T03:24:46;99913.03;;;17.24;76.11
43115;BME280;28727;50.068;14.452;2023-06-24T03:27:18;99911.78;;;17.20;76.85
43115;BME280;28727;50.068;14.452;2023-06-24T03:29:54;99909.94;;;17.20;76.86
43115;BME280;28727;50.068;14.452;2023-06-24T03:32:36;99903.75;;;17.20;76.45
43115;BME280;28727;50.068;14.452;2023-06-24T03:35:15;99912.00;;;17.18;76.57
43115;BME280;28727;50.068;14.452;2023-06-24T03:37:53;99912.41;;;17.22;76.56
43115;BME280;28727;50.068;14.452;2023-06-24T03:40:25;99917.56;;;17.24;76.08
43115;BME280;28727;50.068;14.452;2023-06-24T03:42:56;99917.56;;;17.24;75.93
43115;BME280;28727;50.068;14.452;2023-06-24T03:45:28;99920.88;;;17.26;75.75
43115;BME280;28727;50.068;14.452;2023-06-24T03:48:00;99919.41;;;17.23;75.69
43115;BME280;28727;50.068;14.452;2023-06-24T03:50:34;99914.44;;;17.20;76.00
43115;BME280;28727;50.068;14.452;2023-06-24T03:53:09;99908.91;;;17.22;76.09
43115;BME280;28727;50.068;14.452;2023-06-24T03:55:42;99912.84;;;17.26;76.04
43115;BME280;28727;50.068;14.452;2023-06-24T03:58:13;99915.75;;;17.31;75.97
43115;BME280;28727;50.068;14.452;2023-06-24T04:00:48;99916.81;;;17.36;75.72
43115;BME280;28727;50.068;14.452;2023-06-24T04:03:21;99915.19;;;17.42;75.70
43115;BME280;28727;50.068;14.452;2023-06-24T04:05:59;99919.09;;;17.46;75.42
43115;BME280;28727;50.068;14.452;2023-06-24T04:08:36;99914.38;;;17.48;75.26
43115;BME280;28727;50.068;14.452;2023-06-24T04:11:17;99910.69;;;17.49;75.04
43115;BME280;28727;50.068;14.452;2023-06-24T04:13:51;99905.34;;;17.49;75.06
43115;BME280;28727;50.068;14.452;2023-06-24T04:16:23;99901.25;;;17.53;74.89
43115;BME280;28727;50.068;14.452;2023-06-24T04:18:55;99906.19;;;17.56;74.81
43115;BME280;28727;50.068;14.452;2023-06-24T04:21:27;99907.63;;;17.58;74.56
43115;BME280;28727;50.068;14.452;2023-06-24T04:23:59;99902.50;;;17.57;74.88
43115;BME280;28727;50.068;14.452;2023-06-24T04:26:35;99910.38;;;17.65;74.55
43115;BME280;28727;50.068;14.452;2023-06-24T04:29:10;99915.09;;;17.70;74.17
43115;BME280;28727;50.068;14.452;2023-06-24T04:31:47;99919.84;;;17.74;73.89
43115;BME280;28727;50.068;14.452;2023-06-24T04:34:19;99915.97;;;17.77;73.35
43115;BME280;28727;50.068;14.452;2023-06-24T04:36:51;99916.78;;;17.77;73.65
43115;BME280;28727;50.068;14.452;2023-06-24T04:39:27;99910.63;;;17.83;73.37
43115;BME280;28727;50.068;14.452;2023-06-24T04:41:58;99916.59;;;17.92;73.17
43115;BME280;28727;50.068;14.452;2023-06-24T04:44:33;99911.69;;;17.95;73.13
43115;BME280;28727;50.068;14.452;2023-06-24T04:47:05;99918.06;;;17.94;74.10
43115;BME280;28727;50.068;14.452;2023-06-24T04:49:37;99919.50;;;18.10;73.33
43115;BME280;28727;50.068;14.452;2023-06-24T04:52:10;99919.94;;;18.27;73.22
43115;BME280;28727;50.068;14.452;2023-06-24T04:58:45;99918.56;;;18.57;71.66
43115;BME280;28727;50.068;14.452;2023-06-24T05:01:19;99919.56;;;18.69;71.13
43115;BME280;28727;50.068;14.452;2023-06-24T05:04:08;99931.09;;;18.83;70.69
43115;BME280;28727;50.068;14.452;2023-06-24T05:06:40;99930.66;;;18.93;70.05
43115;BME280;28727;50.068;14.452;2023-06-24T05:09:14;99929.44;;;18.95;70.30
43115;BME280;28727;50.068;14.452;2023-06-24T05:11:47;99937.88;;;18.99;69.84
43115;BME280;28727;50.068;14.452;2023-06-24T05:14:19;99939.31;;;19.01;69.46
43115;BME280;28727;50.068;14.452;2023-06-24T05:16:51;99942.81;;;19.08;69.20
43115;BME280;28727;50.068;14.452;2023-06-24T05:19:28;99949.78;;;19.03;69.69
43115;BME280;28727;50.068;14.452;2023-06-24T05:22:02;99946.72;;;18.99;69.28
43115;BME280;28727;50.068;14.452;2023-06-24T05:24:34;99944.06;;;18.86;69.12
43115;BME280;28727;50.068;14.452;2023-06-24T05:27:06;99939.13;;;18.70;68.92
43115;BME280;28727;50.068;14.452;2023-06-24T05:29:38;99946.97;;;18.65;69.16
43115;BME280;28727;50.068;14.452;2023-06-24T05:32:13;99945.72;;;18.67;69.47
43115;BME280;28727;50.068;14.452;2023-06-24T05:34:46;99959.53;;;18.64;68.96
43115;BME280;28727;50.068;14.452;2023-06-24T05:37:22;99955.00;;;18.65;68.84
43115;BME280;28727;50.068;14.452;2023-06-24T05:40:06;99962.19;;;18.71;69.58
43115;BME280;28727;50.068;14.452;2023-06-24T05:42:41;99971.06;;;18.85;69.23
43115;BME280;28727;50.068;14.452;2023-06-24T05:45:13;99968.78;;;18.95;69.02
43115;BME280;28727;50.068;14.452;2023-06-24T05:47:48;99970.81;;;19.06;68.68
43115;BME280;28727;50.068;14.452;2023-06-24T05:50:22;99967.94;;;19.14;68.46
43115;BME280;28727;50.068;14.452;2023-06-24T05:52:54;99972.84;;;19.23;67.67
43115;BME280;28727;50.068;14.452;2023-06-24T05:55:26;99964.59;;;19.32;67.92
43115;BME280;28727;50.068;14.452;2023-06-24T05:57:58;99974.25;;;19.39;67.61
43115;BME280;28727;50.068;14.452;2023-06-24T06:00:30;99979.84;;;19.38;67.20
43115;BME280;28727;50.068;14.452;2023-06-24T06:03:02;99979.59;;;19.52;66.45
43115;BME280;28727;50.068;14.452;2023-06-24T06:05:34;99988.44;;;19.59;66.14
43115;BME280;28727;50.068;14.452;2023-06-24T06:08:06;99991.72;;;19.61;66.23
43115;BME280;28727;50.068;14.452;2023-06-24T06:10:38;99991.94;;;19.60;65.98
43115;BME280;28727;50.068;14.452;2023-06-24T06:13:10;99989.47;;;19.65;66.30
43115;BME280;28727;50.068;14.452;2023-06-24T06:15:41;100000.38;;;19.70;66.39
43115;BME280;28727;50.068;14.452;2023-06-24T06:18:13;99997.00;;;19.81;66.12
43115;BME280;28727;50.068;14.452;2023-06-24T06:20:49;99994.31;;;19.88;65.53
43115;BME280;28727;50.068;14.452;2023-06-24T06:23:20;100000.66;;;20.00;65.43
43115;BME280;28727;50.068;14.452;2023-06-24T06:25:54;99994.41;;;20.13;65.52
43115;BME280;28727;50.068;14.452;2023-06-24T06:28:25;100001.75;;;20.24;65.01
43115;BME280;28727;50.068;14.452;2023-06-24T06:31:00;100000.28;;;20.28;64.96
43115;BME280;28727;50.068;14.452;2023-06-24T06:33:32;99999.88;;;20.31;64.78
43115;BME280;28727;50.068;14.452;2023-06-24T06:36:07;99999.03;;;20.37;64.52
43115;BME280;28727;50.068;14.452;2023-06-24T06:38:40;100007.63;;;20.46;64.51
43115;BME280;28727;50.068;14.452;2023-06-24T06:41:12;100015.31;;;20.42;65.23
43115;BME280;28727;50.068;14.452;2023-06-24T06:43:47;99991.75;;;20.44;65.56
43115;BME280;28727;50.068;14.452;2023-06-24T06:46:20;99991.69;;;20.51;65.15
43115;BME280;28727;50.068;14.452;2023-06-24T06:48:52;99992.66;;;20.63;64.93
43115;BME280;28727;50.068;14.452;2023-06-24T06:51:24;100000.19;;;20.79;64.63
43115;BME280;28727;50.068;14.452;2023-06-24T06:53:59;99996.13;;;20.95;64.18
43115;BME280;28727;50.068;14.452;2023-06-24T06:56:31;99994.28;;;21.13;63.53
43115;BME280;28727;50.068;14.452;2023-06-24T06:59:03;99992.75;;;21.24;63.22
43115;BME280;28727;50.068;14.452;2023-06-24T07:01:35;99992.03;;;21.35;63.37
43115;BME280;28727;50.068;14.452;2023-06-24T07:04:08;99994.03;;;21.40;63.45
43115;BME280;28727;50.068;14.452;2023-06-24T07:06:40;99985.00;;;21.71;62.96
43115;BME280;28727;50.068;14.452;2023-06-24T07:09:12;99981.25;;;22.08;61.86
43115;BME280;28727;50.068;14.452;2023-06-24T07:11:43;99985.91;;;22.31;60.02
43115;BME280;28727;50.068;14.452;2023-06-24T07:14:18;99986.16;;;22.41;59.47
43115;BME280;28727;50.068;14.452;2023-06-24T07:16:50;99983.16;;;22.61;59.39
43115;BME280;28727;50.068;14.452;2023-06-24T07:19:25;99975.03;;;22.91;57.62
43115;BME280;28727;50.068;14.452;2023-06-24T07:21:57;99982.28;;;23.25;57.17
43115;BME280;28727;50.068;14.452;2023-06-24T07:24:32;99982.53;;;23.47;57.27
43115;BME280;28727;50.068;14.452;2023-06-24T07:27:04;99966.34;;;23.87;56.91
43115;BME280;28727;50.068;14.452;2023-06-24T07:29:37;99963.63;;;24.15;55.33
43115;BME280;28727;50.068;14.452;2023-06-24T07:32:09;99958.31;;;24.32;54.57
43115;BME280;28727;50.068;14.452;2023-06-24T07:34:41;99957.66;;;24.41;55.18
43115;BME280;28727;50.068;14.452;2023-06-24T07:37:13;99958.00;;;24.78;53.15
43115;BME280;28727;50.068;14.452;2023-06-24T07:39:55;99959.59;;;24.91;53.77
43115;BME280;28727;50.068;14.452;2023-06-24T07:42:27;99950.00;;;25.39;52.33
43115;BME280;28727;50.068;14.452;2023-06-24T07:45:02;99957.31;;;25.60;51.45
43115;BME280;28727;50.068;14.452;2023-06-24T07:47:34;99961.00;;;25.54;51.18
43115;BME280;28727;50.068;14.452;2023-06-24T07:50:07;99952.25;;;25.47;50.47
43115;BME280;28727;50.068;14.452;2023-06-24T07:52:40;99961.72;;;25.66;51.30
43115;BME280;28727;50.068;14.452;2023-06-24T07:55:12;99965.22;;;25.88;50.95
43115;BME280;28727;50.068;14.452;2023-06-24T07:57:47;99959.28;;;26.13;49.66
43115;BME280;28727;50.068;14.452;2023-06-24T08:00:19;99958.50;;;26.18;48.98
43115;BME280;28727;50.068;14.452;2023-06-24T08:02:51;99959.47;;;26.06;48.56
43115;BME280;28727;50.068;14.452;2023-06-24T08:05:23;99965.13;;;25.78;49.46
43115;BME280;28727;50.068;14.452;2023-06-24T08:08:00;99963.91;;;25.91;49.10
43115;BME280;28727;50.068;14.452;2023-06-24T08:10:32;99965.91;;;26.00;48.60
43115;BME280;28727;50.068;14.452;2023-06-24T08:13:05;99954.56;;;26.03;48.66
43115;BME280;28727;50.068;14.452;2023-06-24T08:15:37;99957.78;;;26.54;47.81
43115;BME280;28727;50.068;14.452;2023-06-24T08:18:12;99956.03;;;27.07;46.38
43115;BME280;28727;50.068;14.452;2023-06-24T08:20:44;99960.13;;;27.09;45.55
43115;BME280;28727;50.068;14.452;2023-06-24T08:23:16;99954.34;;;26.96;46.04
43115;BME280;28727;50.068;14.452;2023-06-24T08:25:48;99954.19;;;26.80;45.21
43115;BME280;28727;50.068;14.452;2023-06-24T08:28:20;99954.06;;;26.65;45.56
43115;BME280;28727;50.068;14.452;2023-06-24T08:30:51;99958.06;;;26.58;45.67
43115;BME280;28727;50.068;14.452;2023-06-24T08:33:23;99960.41;;;26.44;45.86
43115;BME280;28727;50.068;14.452;2023-06-24T08:35:55;99960.78;;;26.04;45.47
43115;BME280;28727;50.068;14.452;2023-06-24T08:38:28;99965.56;;;25.70;46.10
43115;BME280;28727;50.068;14.452;2023-06-24T08:41:00;99959.56;;;25.90;45.94
43115;BME280;28727;50.068;14.452;2023-06-24T08:43:32;99965.41;;;25.82;45.28
43115;BME280;28727;50.068;14.452;2023-06-24T08:46:09;99972.31;;;25.67;46.42
43115;BME280;28727;50.068;14.452;2023-06-24T08:48:44;99969.50;;;25.62;46.37
43115;BME280;28727;50.068;14.452;2023-06-24T08:51:18;99970.34;;;25.85;45.72
43115;BME280;28727;50.068;14.452;2023-06-24T08:53:53;99959.19;;;26.30;45.15
43115;BME280;28727;50.068;14.452;2023-06-24T08:56:25;99963.16;;;26.49;44.25
43115;BME280;28727;50.068;14.452;2023-06-24T08:58:57;99961.28;;;26.49;42.78
43115;BME280;28727;50.068;14.452;2023-06-24T09:01:30;99961.22;;;26.44;43.47
43115;BME280;28727;50.068;14.452;2023-06-24T09:04:02;99957.16;;;26.74;43.10
43115;BME280;28727;50.068;14.452;2023-06-24T09:06:37;99955.69;;;26.98;43.48
43115;BME280;28727;50.068;14.452;2023-06-24T09:09:22;99960.41;;;27.13;43.86
43115;BME280;28727;50.068;14.452;2023-06-24T09:11:56;99963.34;;;27.06;41.71
43115;BME280;28727;50.068;14.452;2023-06-24T09:14:29;99968.22;;;27.04;42.33
43115;BME280;28727;50.068;14.452;2023-06-24T09:17:03;99961.88;;;27.30;42.24
43115;BME280;28727;50.068;14.452;2023-06-24T09:19:44;99965.59;;;27.14;43.20
43115;BME280;28727;50.068;14.452;2023-06-24T09:22:16;99963.34;;;26.74;43.66
43115;BME280;28727;50.068;14.452;2023-06-24T09:24:49;99961.59;;;26.58;44.74
43115;BME280;28727;50.068;14.452;2023-06-24T09:27:21;99958.47;;;26.71;45.12
43115;BME280;28727;50.068;14.452;2023-06-24T09:29:55;99968.84;;;26.79;44.81
43115;BME280;28727;50.068;14.452;2023-06-24T09:32:31;99954.28;;;26.59;44.28
43115;BME280;28727;50.068;14.452;2023-06-24T09:35:06;99960.47;;;26.86;43.65
43115;BME280;28727;50.068;14.452;2023-06-24T09:37:41;99966.44;;;27.20;44.45
43115;BME280;28727;50.068;14.452;2023-06-24T09:40:13;99964.44;;;27.52;43.34
43115;BME280;28727;50.068;14.452;2023-06-24T09:43:03;99957.72;;;27.65;43.24
43115;BME280;28727;50.068;14.452;2023-06-24T09:45:40;99951.72;;;27.63;40.71
43115;BME280;28727;50.068;14.452;2023-06-24T09:48:15;99952.03;;;27.66;40.17
43115;BME280;28727;50.068;14.452;2023-06-24T09:50:47;99958.03;;;27.74;40.16
43115;BME280;28727;50.068;14.452;2023-06-24T09:53:23;99955.06;;;27.85;40.02
43115;BME280;28727;50.068;14.452;2023-06-24T09:55:55;99950.19;;;27.92;39.52
43115;BME280;28727;50.068;14.452;2023-06-24T09:58:34;99961.28;;;27.76;40.62
43115;BME280;28727;50.068;14.452;2023-06-24T10:01:07;99960.69;;;27.63;41.04
43115;BME280;28727;50.068;14.452;2023-06-24T10:03:39;99959.63;;;27.69;40.69
43115;BME280;28727;50.068;14.452;2023-06-24T10:06:12;99949.91;;;27.79;40.72
43115;BME280;28727;50.068;14.452;2023-06-24T10:08:44;99955.63;;;27.92;40.42
43115;BME280;28727;50.068;14.452;2023-06-24T10:11:16;99963.47;;;27.74;41.42
43115;BME280;28727;50.068;14.452;2023-06-24T10:13:49;99957.53;;;27.35;42.34
43115;BME280;28727;50.068;14.452;2023-06-24T10:16:22;99951.16;;;27.09;41.04
43115;BME280;28727;50.068;14.452;2023-06-24T10:19:00;99960.69;;;27.16;40.43
43115;BME280;28727;50.068;14.452;2023-06-24T10:21:46;99955.94;;;27.39;40.35
43115;BME280;28727;50.068;14.452;2023-06-24T10:24:36;99960.19;;;27.19;40.39
43115;BME280;28727;50.068;14.452;2023-06-24T10:27:16;99951.16;;;27.04;39.88
43115;BME280;28727;50.068;14.452;2023-06-24T10:29:49;99950.44;;;26.86;42.02
43115;BME280;28727;50.068;14.452;2023-06-24T10:32:25;99955.47;;;26.68;42.48
43115;BME280;28727;50.068;14.452;2023-06-24T10:35:00;99945.53;;;26.83;41.53
43115;BME280;28727;50.068;14.452;2023-06-24T10:37:35;99947.13;;;27.16;40.81
43115;BME280;28727;50.068;14.452;2023-06-24T10:40:07;99941.41;;;27.65;38.58
43115;BME280;28727;50.068;14.452;2023-06-24T10:42:44;99932.47;;;27.69;38.62
43115;BME280;28727;50.068;14.452;2023-06-24T10:45:19;99941.91;;;27.52;39.70
43115;BME280;28727;50.068;14.452;2023-06-24T10:47:51;99931.25;;;27.40;39.90
43115;BME280;28727;50.068;14.452;2023-06-24T10:50:34;99928.13;;;27.11;40.37
43115;BME280;28727;50.068;14.452;2023-06-24T10:53:08;99925.53;;;27.32;38.93
43115;BME280;28727;50.068;14.452;2023-06-24T10:55:40;99923.50;;;27.12;40.43
43115;BME280;28727;50.068;14.452;2023-06-24T10:58:14;99922.81;;;27.37;38.76
43115;BME280;28727;50.068;14.452;2023-06-24T11:00:47;99923.16;;;27.50;38.36
43115;BME280;28727;50.068;14.452;2023-06-24T11:03:20;99912.94;;;27.67;37.67
43115;BME280;28727;50.068;14.452;2023-06-24T11:05:54;99914.28;;;27.65;37.59
43115;BME280;28727;50.068;14.452;2023-06-24T11:08:26;99905.88;;;27.66;38.58
43115;BME280;28727;50.068;14.452;2023-06-24T11:11:00;99907.78;;;27.71;38.76
43115;BME280;28727;50.068;14.452;2023-06-24T11:13:34;99898.81;;;27.81;37.86
43115;BME280;28727;50.068;14.452;2023-06-24T11:16:09;99904.38;;;28.21;37.74
43115;BME280;28727;50.068;14.452;2023-06-24T11:18:43;99892.97;;;28.49;35.70
43115;BME280;28727;50.068;14.452;2023-06-24T11:21:15;99890.25;;;28.14;36.58
43115;BME280;28727;50.068;14.452;2023-06-24T11:23:47;99896.66;;;27.67;37.80
43115;BME280;28727;50.068;14.452;2023-06-24T11:26:22;99891.47;;;27.66;37.85
43115;BME280;28727;50.068;14.452;2023-06-24T11:28:53;99882.00;;;27.89;38.48
43115;BME280;28727;50.068;14.452;2023-06-24T11:31:25;99871.66;;;27.81;38.39
43115;BME280;28727;50.068;14.452;2023-06-24T11:33:57;99880.38;;;27.88;37.70
43115;BME280;28727;50.068;14.452;2023-06-24T11:36:30;99874.75;;;28.20;37.78
43115;BME280;28727;50.068;14.452;2023-06-24T11:39:02;99881.25;;;28.08;36.91
43115;BME280;28727;50.068;14.452;2023-06-24T11:41:36;99878.28;;;28.15;36.84
43115;BME280;28727;50.068;14.452;2023-06-24T11:44:09;99873.13;;;28.19;36.48
43115;BME280;28727;50.068;14.452;2023-06-24T11:46:41;99877.97;;;28.11;36.01
43115;BME280;28727;50.068;14.452;2023-06-24T11:49:12;99869.00;;;27.91;36.71
43115;BME280;28727;50.068;14.452;2023-06-24T11:51:50;99871.44;;;28.13;35.39
43115;BME280;28727;50.068;14.452;2023-06-24T11:54:22;99877.47;;;28.20;35.84
43115;BME280;28727;50.068;14.452;2023-06-24T11:56:55;99873.66;;;28.16;35.20
43115;BME280;28727;50.068;14.452;2023-06-24T11:59:27;99872.00;;;28.09;35.37
43115;BME280;28727;50.068;14.452;2023-06-24T12:01:59;99878.00;;;28.22;36.34
43115;BME280;28727;50.068;14.452;2023-06-24T12:04:34;99867.38;;;28.45;33.20
43115;BME280;28727;50.068;14.452;2023-06-24T12:07:08;99867.66;;;28.49;34.46
43115;BME280;28727;50.068;14.452;2023-06-24T12:09:40;99873.94;;;28.49;34.57
43115;BME280;28727;50.068;14.452;2023-06-24T12:12:12;99868.50;;;28.49;34.60
43115;BME280;28727;50.068;14.452;2023-06-24T12:14:44;99860.03;;;28.46;34.28
43115;BME280;28727;50.068;14.452;2023-06-24T12:17:16;99861.41;;;27.98;34.93
43115;BME280;28727;50.068;14.452;2023-06-24T12:19:47;99867.09;;;27.86;35.04
43115;BME280;28727;50.068;14.452;2023-06-24T12:22:19;99857.03;;;28.02;33.93
43115;BME280;28727;50.068;14.452;2023-06-24T12:24:52;99856.78;;;28.03;34.55
43115;BME280;28727;50.068;14.452;2023-06-24T12:27:23;99855.63;;;27.69;34.60
43115;BME280;28727;50.068;14.452;2023-06-24T12:29:55;99859.47;;;27.83;35.60
43115;BME280;28727;50.068;14.452;2023-06-24T12:32:27;99855.41;;;27.96;33.17
43115;BME280;28727;50.068;14.452;2023-06-24T12:34:59;99844.56;;;27.96;33.84
43115;BME280;28727;50.068;14.452;2023-06-24T12:37:31;99840.72;;;27.82;33.36
43115;BME280;28727;50.068;14.452;2023-06-24T12:40:04;99847.53;;;27.79;34.34
43115;BME280;28727;50.068;14.452;2023-06-24T12:42:37;99838.28;;;27.80;33.28
43115;BME280;28727;50.068;14.452;2023-06-24T12:45:09;99830.41;;;27.99;33.03
43115;BME280;28727;50.068;14.452;2023-06-24T12:47:41;99841.31;;;28.09;33.46
43115;BME280;28727;50.068;14.452;2023-06-24T12:50:13;99838.56;;;27.99;32.99
43115;BME280;28727;50.068;14.452;2023-06-24T12:52:48;99837.19;;;27.81;33.82
43115;BME280;28727;50.068;14.452;2023-06-24T12:55:19;99829.84;;;27.61;33.99
43115;BME280;28727;50.068;14.452;2023-06-24T12:57:51;99832.56;;;27.61;34.25
43115;BME280;28727;50.068;14.452;2023-06-24T13:00:24;99834.72;;;27.59;34.23
43115;BME280;28727;50.068;14.452;2023-06-24T13:02:56;99828.22;;;27.60;33.91
43115;BME280;28727;50.068;14.452;2023-06-24T13:05:28;99829.81;;;27.51;33.37
43115;BME280;28727;50.068;14.452;2023-06-24T13:08:00;99830.78;;;27.20;34.28
43115;BME280;28727;50.068;14.452;2023-06-24T13:10:32;99829.75;;;27.36;33.20
43115;BME280;28727;50.068;14.452;2023-06-24T13:13:04;99825.13;;;27.32;33.78
43115;BME280;28727;50.068;14.452;2023-06-24T13:15:36;99827.53;;;27.28;33.01
43115;BME280;28727;50.068;14.452;2023-06-24T13:18:08;99824.56;;;27.40;33.42
43115;BME280;28727;50.068;14.452;2023-06-24T13:20:39;99823.84;;;27.54;32.32
43115;BME280;28727;50.068;14.452;2023-06-24T13:23:11;99823.88;;;27.69;32.18
43115;BME280;28727;50.068;14.452;2023-06-24T13:25:43;99824.16;;;27.68;32.44
43115;BME280;28727;50.068;14.452;2023-06-24T13:28:15;99825.50;;;27.60;33.05
43115;BME280;28727;50.068;14.452;2023-06-24T13:30:47;99820.63;;;27.67;32.21
43115;BME280;28727;50.068;14.452;2023-06-24T13:33:18;99826.56;;;27.54;32.90
43115;BME280;28727;50.068;14.452;2023-06-24T13:35:54;99816.22;;;27.51;33.78
43115;BME280;28727;50.068;14.452;2023-06-24T13:38:27;99815.91;;;27.43;32.39
43115;BME280;28727;50.068;14.452;2023-06-24T13:40:58;99819.69;;;27.26;32.65
43115;BME280;28727;50.068;14.452;2023-06-24T13:43:30;99823.13;;;27.07;32.67